Time;durP1;ratioP1;P1;durP2;ratioP2;P2;SDS_P1;SDS_P2;PMS_P1;PMS_P2;Temp;Humidity;BMP_temperature;BMP_pressure;BME280_temperature;BME280_humidity;BME280_pressure;Samples;Min_cycle;Max_cycle;Signal;HPM_P1;HPM_P2
2021/06/05 00:02:05;;;;;;;8.20;4.15;;;19.70;15.50;;;;;;5004108;28;20068;-65
2021/06/05 00:04:56;;;;;;;6.63;4.22;;;19.70;14.60;;;;;;5003406;28;20474;-65
2021/06/05 00:07:44;;;;;;;4.72;3.70;;;19.70;15.50;;;;;;5006527;28;20045;-64
2021/06/05 00:10:35;;;;;;;5.32;3.92;;;19.70;15.40;;;;;;5007831;28;20526;-64
2021/06/05 00:13:27;;;;;;;6.70;3.92;;;19.70;14.10;;;;;;4998738;28;20125;-64
2021/06/05 00:16:19;;;;;;;8.50;4.47;;;19.70;14.40;;;;;;5006021;28;20512;-64
2021/06/05 00:19:11;;;;;;;5.68;3.40;;;19.70;15.30;;;;;;5018904;28;20042;-65
2021/06/05 00:21:59;;;;;;;5.40;3.60;;;19.60;15.50;;;;;;4988435;28;20049;-65
2021/06/05 00:24:47;;;;;;;8.35;3.88;;;19.40;17.20;;;;;;5005261;28;20497;-65
2021/06/05 00:27:35;;;;;;;6.70;3.92;;;19.30;18.70;;;;;;4990238;28;20046;-66
2021/06/05 00:30:24;;;;;;;9.43;3.85;;;19.30;17.50;;;;;;5004828;28;20128;-66
2021/06/05 00:33:12;;;;;;;6.95;4.13;;;19.30;18.20;;;;;;5004987;28;20065;-65
2021/06/05 00:36:04;;;;;;;6.60;4.15;;;19.20;18.40;;;;;;5004780;28;20074;-66
2021/06/05 00:38:54;;;;;;;5.82;4.43;;;19.20;17.70;;;;;;5004504;28;20528;-66
2021/06/05 00:41:42;;;;;;;7.00;4.75;;;19.20;19.20;;;;;;4988931;28;20050;-64
2021/06/05 00:44:30;;;;;;;10.27;4.20;;;19.20;21.30;;;;;;4997219;28;20888;-66
2021/06/05 00:47:19;;;;;;;4.70;4.00;;;19.20;20.50;;;;;;5005502;28;20052;-64
2021/06/05 00:50:09;;;;;;;6.70;4.18;;;19.10;21.30;;;;;;5003727;28;20049;-65
2021/06/05 00:53:00;;;;;;;6.72;4.43;;;19.00;21.90;;;;;;4986843;28;20181;-66
2021/06/05 00:55:51;;;;;;;7.97;3.95;;;19.00;21.80;;;;;;4994524;28;20504;-65
2021/06/05 00:58:40;;;;;;;5.55;3.55;;;19.10;19.60;;;;;;5017442;28;20124;-65
2021/06/05 01:01:31;;;;;;;5.60;3.03;;;19.10;18.30;;;;;;4989012;28;20061;-65
2021/06/05 01:04:20;;;;;;;5.75;2.70;;;19.10;16.10;;;;;;4974464;28;20589;-65
2021/06/05 01:07:15;;;;;;;4.10;2.58;;;19.10;11.50;;;;;;4988936;28;20057;-65
2021/06/05 01:10:15;;;;;;;5.68;2.50;;;19.20;10.40;;;;;;4976030;28;20124;-65
2021/06/05 01:13:08;;;;;;;3.20;2.20;;;19.10;10.70;;;;;;5014336;28;20146;-65
2021/06/05 01:16:07;;;;;;;6.75;2.90;;;19.00;11.40;;;;;;4989854;28;20042;-66
2021/06/05 01:18:59;;;;;;;5.18;2.40;;;19.00;10.20;;;;;;4988894;28;20046;-66
2021/06/05 01:22:02;;;;;;;5.55;2.47;;;19.00;9.30;;;;;;5004043;28;20125;-66
2021/06/05 01:25:09;;;;;;;2.85;1.88;;;19.00;9.50;;;;;;4989133;28;20046;-66
2021/06/05 01:28:04;;;;;;;4.15;2.03;;;18.90;10.00;;;;;;4992907;28;20041;-65
2021/06/05 01:31:02;;;;;;;8.15;2.50;;;19.00;9.10;;;;;;4992872;28;20049;-64
2021/06/05 01:33:53;;;;;;;2.90;2.10;;;18.90;8.50;;;;;;5002165;28;20409;-65
2021/06/05 01:36:46;;;;;;;5.32;2.00;;;18.80;9.80;;;;;;4990751;28;20065;-65
2021/06/05 01:39:37;;;;;;;3.70;1.83;;;18.70;9.50;;;;;;5004029;28;20046;-66
2021/06/05 01:42:37;;;;;;;2.90;1.55;;;18.50;9.90;;;;;;4985598;28;20042;-64
2021/06/05 01:45:30;;;;;;;5.30;1.65;;;18.40;10.80;;;;;;4989034;28;20402;-64
2021/06/05 01:48:20;;;;;;;4.85;1.85;;;18.40;11.60;;;;;;4992814;28;20497;-64
2021/06/05 01:51:15;;;;;;;2.63;1.40;;;18.30;10.90;;;;;;4988625;28;20072;-64
2021/06/05 01:54:08;;;;;;;2.17;1.48;;;18.30;10.90;;;;;;4985967;28;20501;-65
2021/06/05 01:57:00;;;;;;;5.53;1.92;;;18.20;11.00;;;;;;4988179;28;20046;-64
2021/06/05 02:00:10;;;;;;;4.03;1.67;;;18.20;10.70;;;;;;4988096;28;20149;-64
2021/06/05 02:03:15;;;;;;;4.82;2.70;;;18.20;11.90;;;;;;5001945;28;20046;-65
2021/06/05 02:06:11;;;;;;;3.58;1.60;;;18.20;10.60;;;;;;4994811;28;20050;-65
2021/06/05 02:09:02;;;;;;;4.53;1.55;;;18.10;10.50;;;;;;4991693;28;20073;-65
2021/06/05 02:11:58;;;;;;;3.60;1.65;;;18.00;11.50;;;;;;4990645;28;20086;-65
2021/06/05 02:15:06;;;;;;;3.42;1.60;;;18.20;10.70;;;;;;5018455;28;20048;-64
2021/06/05 02:17:55;;;;;;;2.75;1.60;;;18.20;9.70;;;;;;5008828;28;20046;-65
2021/06/05 02:20:53;;;;;;;2.25;1.58;;;18.30;9.40;;;;;;4993278;28;20112;-65
2021/06/05 02:23:44;;;;;;;3.88;1.40;;;18.20;9.70;;;;;;4989901;28;20125;-64
2021/06/05 02:26:34;;;;;;;4.97;1.50;;;18.20;9.70;;;;;;4979219;28;20050;-64
2021/06/05 02:29:41;;;;;;;3.13;1.30;;;18.20;9.80;;;;;;5006673;28;20045;-64
2021/06/05 02:32:33;;;;;;;2.38;1.30;;;18.20;10.10;;;;;;4985789;28;20137;-65
2021/06/05 02:35:26;;;;;;;3.17;1.23;;;18.20;9.70;;;;;;4994645;28;20049;-65
2021/06/05 02:38:24;;;;;;;4.28;1.40;;;18.10;10.30;;;;;;5007492;28;20489;-65
2021/06/05 02:41:20;;;;;;;;;;;17.90;11.70;;;;;;4991786;28;20048;-65
2021/06/05 02:44:09;;;;;;;3.63;1.65;;;17.80;12.10;;;;;;4988100;28;19925;-63
2021/06/05 02:46:59;;;;;;;1.98;1.17;;;17.80;12.50;;;;;;4978448;28;20129;-64
2021/06/05 02:49:49;;;;;;;3.75;1.52;;;17.90;13.50;;;;;;5008408;28;20409;-64
2021/06/05 02:52:39;;;;;;;1.88;1.30;;;17.80;13.10;;;;;;4988893;28;20049;-65
2021/06/05 02:55:35;;;;;;;2.23;1.60;;;17.50;14.30;;;;;;4988979;28;20405;-66
2021/06/05 02:58:24;;;;;;;1.40;1.10;;;17.60;14.20;;;;;;4991493;28;20308;-63
2021/06/05 03:01:13;;;;;;;3.97;1.42;;;17.60;14.50;;;;;;4988766;28;20038;-64
2021/06/05 03:04:04;;;;;;;2.45;1.20;;;17.60;13.90;;;;;;5002799;28;20053;-64
2021/06/05 03:06:52;;;;;;;2.42;1.23;;;17.70;14.10;;;;;;5006897;28;20061;-63
2021/06/05 03:09:41;;;;;;;2.45;1.38;;;17.70;14.50;;;;;;5007764;28;20057;-64
2021/06/05 03:12:31;;;;;;;2.45;1.55;;;17.70;14.00;;;;;;4990669;28;20058;-64
2021/06/05 03:15:21;;;;;;;2.92;1.90;;;17.60;14.30;;;;;;4990602;28;20046;-65
2021/06/05 03:18:11;;;;;;;3.85;1.70;;;17.50;15.00;;;;;;5006980;28;20081;-65
2021/06/05 03:21:00;;;;;;;5.10;1.60;;;17.50;16.50;;;;;;4991063;28;20486;-63
2021/06/05 03:23:49;;;;;;;2.47;1.88;;;17.50;16.20;;;;;;5001539;28;20507;-64
2021/06/05 03:26:48;;;;;;;5.50;1.63;;;17.50;16.60;;;;;;5005442;28;20184;-65
2021/06/05 03:29:38;;;;;;;3.05;1.77;;;17.60;17.30;;;;;;5009353;28;20051;-64
2021/06/05 03:32:28;;;;;;;3.78;1.58;;;17.60;16.30;;;;;;5001963;28;20056;-64
2021/06/05 03:35:16;;;;;;;3.13;1.50;;;17.70;16.70;;;;;;4989615;28;20513;-64
2021/06/05 03:38:05;;;;;;;2.95;1.45;;;17.80;15.50;;;;;;4988797;28;20054;-64
2021/06/05 03:40:56;;;;;;;3.03;1.23;;;17.90;15.80;;;;;;5014957;28;20053;-65
2021/06/05 03:43:44;;;;;;;3.67;1.48;;;18.00;13.30;;;;;;4988928;28;20169;-65
2021/06/05 03:46:34;;;;;;;2.20;1.40;;;18.10;12.40;;;;;;5007326;28;20052;-65
2021/06/05 03:49:24;;;;;;;1.85;1.27;;;18.60;9.60;;;;;;5004914;28;20057;-65
2021/06/05 03:52:13;;;;;;;2.38;1.20;;;18.40;10.00;;;;;;5001409;28;20045;-66
2021/06/05 03:55:03;;;;;;;4.75;1.70;;;18.70;10.00;;;;;;5016539;28;20169;-64
2021/06/05 03:57:51;;;;;;;2.38;1.40;;;19.00;6.50;;;;;;5006696;28;20045;-63
2021/06/05 04:00:42;;;;;;;4.32;1.48;;;19.20;4.70;;;;;;5005116;28;20038;-65
2021/06/05 04:03:31;;;;;;;1.85;1.17;;;19.60;1.00;;;;;;4991954;28;20084;-63
2021/06/05 04:06:20;;;;;;;5.00;1.40;;;19.10;3.40;;;;;;5008570;28;20857;-64
2021/06/05 04:09:08;;;;;;;1.48;1.17;;;19.10;4.10;;;;;;5007344;28;20054;-64
2021/06/05 04:11:56;;;;;;;3.55;1.30;;;18.60;4.30;;;;;;5003704;28;20838;-64
2021/06/05 04:14:44;;;;;;;1.35;1.10;;;18.50;6.10;;;;;;5004518;28;20054;-64
2021/06/05 04:17:32;;;;;;;5.55;1.10;;;18.50;6.90;;;;;;5000333;28;20041;-65
2021/06/05 04:20:22;;;;;;;1.95;1.17;;;18.50;7.50;;;;;;5007329;28;20101;-64
2021/06/05 04:23:12;;;;;;;3.78;1.30;;;18.50;6.80;;;;;;5003231;28;20405;-64
2021/06/05 04:26:00;;;;;;;2.75;1.10;;;18.50;7.40;;;;;;5005105;28;20096;-64
2021/06/05 04:28:48;;;;;;;1.48;1.15;;;18.90;7.00;;;;;;5004911;28;20053;-65
2021/06/05 04:31:36;;;;;;;3.83;1.30;;;20.20;1.00;;;;;;5005288;28;20101;-64
2021/06/05 04:34:24;;;;;;;2.35;1.40;;;19.00;3.50;;;;;;5001816;28;20393;-64
2021/06/05 04:37:13;;;;;;;2.13;1.38;;;18.60;6.00;;;;;;5007473;28;20088;-65
2021/06/05 04:40:01;;;;;;;1.88;1.20;;;18.50;7.80;;;;;;5003436;28;20038;-64
2021/06/05 04:42:51;;;;;;;5.13;1.77;;;18.20;9.60;;;;;;5003975;28;20501;-64
2021/06/05 04:45:39;;;;;;;2.33;1.27;;;18.20;9.70;;;;;;5005520;28;20050;-65
2021/06/05 04:48:27;;;;;;;3.33;1.42;;;18.30;9.80;;;;;;5017492;28;20116;-64
2021/06/05 04:51:21;;;;;;;9.13;1.33;;;18.60;8.20;;;;;;5004914;28;20050;-64
2021/06/05 04:54:10;;;;;;;3.45;1.45;;;18.50;6.90;;;;;;4999826;28;20054;-64
2021/06/05 04:56:58;;;;;;;4.00;1.30;;;18.30;7.90;;;;;;5004097;28;20058;-65
2021/06/05 04:59:46;;;;;;;3.45;1.30;;;18.30;9.80;;;;;;4989496;28;20093;-64
2021/06/05 05:02:34;;;;;;;2.13;1.55;;;18.40;8.70;;;;;;5003638;28;20054;-64
2021/06/05 05:05:22;;;;;;;3.28;1.20;;;18.50;6.70;;;;;;5003978;28;20057;-64
2021/06/05 05:08:13;;;;;;;1.83;1.30;;;18.40;6.00;;;;;;5006259;28;20528;-65
2021/06/05 05:11:04;;;;;;;3.85;1.50;;;18.50;6.60;;;;;;5004584;28;20054;-65
2021/06/05 05:13:52;;;;;;;3.05;1.20;;;18.70;6.30;;;;;;5002021;28;20169;-65
2021/06/05 05:16:40;;;;;;;3.05;1.35;;;18.50;7.90;;;;;;5003175;28;20058;-65
2021/06/05 05:19:29;;;;;;;3.58;1.60;;;18.30;8.40;;;;;;5006421;28;20057;-65
2021/06/05 05:22:17;;;;;;;3.05;1.45;;;18.40;7.60;;;;;;5004928;28;20048;-64
2021/06/05 05:25:05;;;;;;;2.65;1.30;;;19.60;1.50;;;;;;5005328;28;20185;-64
2021/06/05 05:27:45;;;;;;;3.42;1.50;;;20.20;1.00;;;;;;5166134;27;20118;-64
2021/06/05 05:30:36;;;;;;;8.55;2.13;;;19.80;1.00;;;;;;5139651;27;20063;-64
2021/06/05 05:33:25;;;;;;;7.18;1.65;;;20.30;1.00;;;;;;5128963;27;20046;-64
2021/06/05 05:36:16;;;;;;;3.92;1.63;;;20.50;1.00;;;;;;5141606;27;20176;-65
2021/06/05 05:39:07;;;;;;;3.20;1.55;;;20.30;1.00;;;;;;5148167;27;20508;-65
2021/06/05 05:41:55;;;;;;;6.72;2.13;;;19.50;1.00;;;;;;5123287;27;20043;-65
2021/06/05 05:44:44;;;;;;;2.33;1.55;;;20.60;1.00;;;;;;5138238;27;20047;-65
2021/06/05 05:47:32;;;;;;;5.18;1.80;;;22.20;1.00;;;;;;5149567;27;20070;-65
2021/06/05 05:50:21;;;;;;;4.30;1.90;;;21.60;1.00;;;;;;5144676;27;20056;-66
2021/06/05 05:53:21;;;;;;;4.25;1.80;;;21.50;1.00;;;;;;5139673;27;20098;-65
2021/06/05 05:56:13;;;;;;;3.40;1.75;;;20.80;1.00;;;;;;5127030;27;20515;-65
2021/06/05 05:59:02;;;;;;;2.72;1.60;;;22.20;1.00;;;;;;5146399;27;20101;-64
2021/06/05 06:01:52;;;;;;;6.90;2.05;;;21.10;1.00;;;;;;5135839;27;20046;-65
2021/06/05 06:04:40;;;;;;;6.72;1.95;;;20.80;1.00;;;;;;5139136;27;20078;-65
2021/06/05 06:07:28;;;;;;;2.88;1.73;;;21.10;1.00;;;;;;5145263;27;20038;-66
2021/06/05 06:10:22;;;;;;;4.18;1.90;;;20.90;1.00;;;;;;5138816;27;20044;-65
2021/06/05 06:13:10;;;;;;;5.10;1.70;;;20.70;1.00;;;;;;5140541;27;20499;-65
2021/06/05 06:15:58;;;;;;;3.38;1.30;;;20.50;1.00;;;;;;5141459;27;20046;-66
2021/06/05 06:18:49;;;;;;;4.13;1.40;;;20.90;1.00;;;;;;5142725;27;20138;-64
2021/06/05 06:21:37;;;;;;;2.20;1.17;;;21.30;1.00;;;;;;5137795;27;20050;-65
2021/06/05 06:24:25;;;;;;;1.60;1.40;;;21.30;1.00;;;;;;5137742;27;20481;-65
2021/06/05 06:27:13;;;;;;;3.22;1.23;;;21.60;1.00;;;;;;5145186;27;20042;-64
2021/06/05 06:30:03;;;;;;;3.30;1.33;;;22.10;1.00;;;;;;5144401;27;20059;-65
2021/06/05 06:32:52;;;;;;;2.17;1.35;;;21.30;1.00;;;;;;5140558;27;20092;-65
2021/06/05 06:35:43;;;;;;;2.30;1.50;;;22.90;1.00;;;;;;5139424;27;20055;-66
2021/06/05 06:38:35;;;;;;;4.07;1.33;;;22.70;1.00;;;;;;5133152;27;20047;-64
2021/06/05 06:41:27;;;;;;;3.83;1.73;;;22.80;1.00;;;;;;5123029;27;20043;-65
2021/06/05 06:44:15;;;;;;;2.55;1.60;;;22.30;1.00;;;;;;5125839;27;20050;-65
2021/06/05 06:47:06;;;;;;;2.25;1.52;;;21.40;1.00;;;;;;5113253;27;20158;-64
2021/06/05 06:49:54;;;;;;;2.60;1.45;;;21.60;1.00;;;;;;5111508;27;20047;-65
2021/06/05 06:52:43;;;;;;;2.20;1.30;;;21.60;1.00;;;;;;5123186;27;20100;-65
2021/06/05 06:55:32;;;;;;;1.75;1.23;;;21.40;1.00;;;;;;5126588;27;20050;-65
2021/06/05 06:58:20;;;;;;;1.63;1.00;;;21.50;1.00;;;;;;5127313;27;20047;-66
2021/06/05 07:01:09;;;;;;;2.95;1.20;;;21.50;1.00;;;;;;5125960;27;20059;-67
2021/06/05 07:03:57;;;;;;;2.83;1.30;;;22.20;1.00;;;;;;5126909;27;20074;-67
2021/06/05 07:06:45;;;;;;;2.35;1.30;;;22.40;1.00;;;;;;5126670;27;20116;-67
2021/06/05 07:09:35;;;;;;;1.40;1.10;;;21.70;1.00;;;;;;5128193;27;20051;-67
2021/06/05 07:12:23;;;;;;;4.65;1.30;;;22.50;1.00;;;;;;5124119;27;20058;-67
2021/06/05 07:15:12;;;;;;;3.22;1.02;;;22.80;1.00;;;;;;5121349;27;20405;-67
2021/06/05 07:18:08;;;;;;;1.65;1.50;;;22.00;1.00;;;;;;5123935;27;20038;-66
2021/06/05 07:20:58;;;;;;;2.65;1.73;;;22.50;1.00;;;;;;5130180;27;20518;-66
2021/06/05 07:23:46;;;;;;;2.95;1.42;;;22.00;1.00;;;;;;5122968;27;20150;-68
2021/06/05 07:26:36;;;;;;;2.45;1.45;;;21.40;1.00;;;;;;5107950;27;20043;-66
2021/06/05 07:29:24;;;;;;;2.58;1.10;;;22.20;1.00;;;;;;5125245;27;20043;-65
2021/06/05 07:32:12;;;;;;;4.50;1.85;;;22.40;1.00;;;;;;5109332;27;20066;-67
2021/06/05 07:35:00;;;;;;;3.10;1.70;;;22.10;1.00;;;;;;5127921;27;20046;-67
2021/06/05 07:37:48;;;;;;;3.13;1.63;;;21.60;1.00;;;;;;5121525;27;20070;-66
2021/06/05 07:40:36;;;;;;;2.38;1.92;;;21.30;1.00;;;;;;5113105;27;20413;-67
2021/06/05 07:43:28;;;;;;;2.92;1.42;;;21.80;1.00;;;;;;5126622;27;20120;-67
2021/06/05 07:46:16;;;;;;;2.05;1.52;;;21.50;1.00;;;;;;5124368;27;20124;-65
2021/06/05 07:49:04;;;;;;;3.88;1.88;;;21.60;1.00;;;;;;5122765;27;20118;-67
2021/06/05 07:51:53;;;;;;;2.15;1.38;;;21.50;1.00;;;;;;5095446;27;20071;-66
2021/06/05 07:54:42;;;;;;;2.80;1.70;;;21.30;1.00;;;;;;5129219;27;20058;-66
2021/06/05 07:57:30;;;;;;;5.57;1.85;;;21.20;1.00;;;;;;5110269;27;20054;-67
2021/06/05 08:00:23;;;;;;;2.63;1.95;;;21.20;1.00;;;;;;5112157;27;20039;-64
2021/06/05 08:03:11;;;;;;;4.30;1.73;;;21.40;1.00;;;;;;5122132;27;20034;-65
2021/06/05 08:05:59;;;;;;;1.60;1.33;;;21.60;1.00;;;;;;5120893;27;20051;-65
2021/06/05 08:08:48;;;;;;;2.67;1.80;;;21.50;1.00;;;;;;5123298;27;20051;-65
2021/06/05 08:11:37;;;;;;;5.88;1.52;;;21.60;1.00;;;;;;5126478;27;20107;-65
2021/06/05 08:14:25;;;;;;;3.83;1.60;;;21.00;1.00;;;;;;5109076;27;20042;-66
2021/06/05 08:17:15;;;;;;;3.08;1.83;;;21.60;1.00;;;;;;5106419;27;20073;-67
2021/06/05 08:20:04;;;;;;;2.80;2.17;;;22.00;1.00;;;;;;5125058;27;20074;-66
2021/06/05 08:22:52;;;;;;;5.40;2.15;;;21.60;1.00;;;;;;5121373;27;20062;-66
2021/06/05 08:25:40;;;;;;;3.45;1.67;;;21.30;1.00;;;;;;5123120;27;20236;-65
2021/06/05 08:28:29;;;;;;;1.98;1.63;;;21.00;1.00;;;;;;5126302;27;20067;-67
2021/06/05 08:31:18;;;;;;;3.03;1.75;;;20.90;1.00;;;;;;5120009;27;20114;-66
2021/06/05 08:34:08;;;;;;;3.83;1.40;;;21.30;1.00;;;;;;5119353;27;21293;-66
2021/06/05 08:36:56;;;;;;;3.78;1.55;;;21.40;1.00;;;;;;5123831;27;20119;-66
2021/06/05 08:39:44;;;;;;;1.80;1.35;;;21.50;1.00;;;;;;5122039;27;20039;-66
2021/06/05 08:42:37;;;;;;;2.22;1.30;;;21.20;1.00;;;;;;5105281;27;20053;-65
2021/06/05 08:45:31;;;;;;;3.70;1.40;;;21.40;1.00;;;;;;5108924;27;20055;-65
2021/06/05 08:48:22;;;;;;;2.60;1.60;;;21.00;1.00;;;;;;5124196;27;20054;-66
2021/06/05 08:51:20;;;;;;;2.60;0.88;;;20.80;1.00;;;;;;5120191;27;20047;-66
2021/06/05 08:54:20;;;;;;;3.67;1.27;;;20.80;1.00;;;;;;5121484;27;20132;-66
2021/06/05 08:57:16;;;;;;;2.30;1.10;;;21.10;1.00;;;;;;5122502;27;20044;-67
2021/06/05 09:00:13;;;;;;;1.77;1.20;;;21.30;1.00;;;;;;5105770;27;20039;-66
2021/06/05 09:03:04;;;;;;;2.28;1.50;;;21.40;1.00;;;;;;5120021;27;20054;-66
2021/06/05 09:05:56;;;;;;;2.45;1.20;;;21.10;1.00;;;;;;5121700;27;20100;-65
2021/06/05 09:08:46;;;;;;;2.22;1.23;;;21.00;1.00;;;;;;5122558;27;20040;-65
2021/06/05 09:11:34;;;;;;;2.63;1.35;;;21.20;1.00;;;;;;5116427;27;20418;-66
2021/06/05 09:14:22;;;;;;;2.10;1.40;;;21.00;1.00;;;;;;5119384;27;20146;-67
2021/06/05 09:17:17;;;;;;;1.40;1.20;;;21.10;1.00;;;;;;5123136;27;20042;-65
2021/06/05 09:20:11;;;;;;;2.88;1.10;;;21.30;1.00;;;;;;5122283;27;20047;-66
2021/06/05 09:22:59;;;;;;;4.40;1.23;;;20.70;1.00;;;;;;5121565;27;20043;-66
2021/06/05 09:25:48;;;;;;;2.53;1.00;;;20.70;1.00;;;;;;5121430;27;20051;-66
2021/06/05 09:28:36;;;;;;;4.78;1.15;;;20.60;1.00;;;;;;5119828;27;20413;-66
2021/06/05 09:31:26;;;;;;;6.65;1.20;;;21.00;1.00;;;;;;5121800;27;20125;-66
2021/06/05 09:34:15;;;;;;;2.00;0.93;;;20.90;1.00;;;;;;5118773;27;20050;-65
2021/06/05 09:37:03;;;;;;;1.67;0.80;;;21.10;1.00;;;;;;5120471;27;20054;-65
2021/06/05 09:40:00;;;;;;;2.58;0.88;;;20.90;1.00;;;;;;5121423;27;20051;-66
2021/06/05 09:42:52;;;;;;;1.13;0.95;;;20.90;1.00;;;;;;5121084;27;20042;-66
2021/06/05 09:45:43;;;;;;;1.17;0.90;;;21.50;1.00;;;;;;5119810;27;20600;-66
2021/06/05 09:48:35;;;;;;;2.13;0.90;;;21.10;1.00;;;;;;5123929;27;20047;-66
2021/06/05 09:51:28;;;;;;;2.47;1.25;;;21.30;1.00;;;;;;5123924;27;20118;-67
2021/06/05 09:54:28;;;;;;;3.20;1.20;;;21.50;1.00;;;;;;5119468;27;20043;-64
2021/06/05 09:57:26;;;;;;;3.03;1.23;;;21.60;1.00;;;;;;5119578;27;20027;-67
2021/06/05 10:00:23;;;;;;;3.00;1.40;;;21.00;1.00;;;;;;5120462;27;20153;-66
2021/06/05 10:03:31;;;;;;;1.95;1.02;;;20.70;1.00;;;;;;5119812;27;20035;-65
2021/06/05 10:06:33;;;;;;;2.72;1.30;;;21.10;1.00;;;;;;5121288;27;20528;-66
2021/06/05 10:09:36;;;;;;;2.22;1.25;;;21.30;1.00;;;;;;5117780;27;20039;-64
2021/06/05 10:12:27;;;;;;;1.42;1.10;;;21.10;1.00;;;;;;5119802;27;20417;-66
2021/06/05 10:15:20;;;;;;;3.10;1.55;;;21.60;1.00;;;;;;5123483;27;20127;-66
2021/06/05 10:18:14;;;;;;;1.35;1.20;;;21.30;1.00;;;;;;5132433;27;20047;-66
2021/06/05 10:21:06;;;;;;;1.65;1.42;;;20.90;1.00;;;;;;5128445;27;20551;-66
2021/06/05 10:24:00;;;;;;;2.72;1.20;;;21.10;1.00;;;;;;5123765;27;20164;-66
2021/06/05 10:26:49;;;;;;;2.17;1.20;;;21.60;1.00;;;;;;5127145;27;20331;-66
2021/06/05 10:29:43;;;;;;;3.33;1.50;;;22.10;1.00;;;;;;5127515;27;20265;-66
2021/06/05 10:32:39;;;;;;;3.03;1.58;;;22.60;1.00;;;;;;5124800;27;20043;-66
2021/06/05 10:35:30;;;;;;;3.20;2.35;;;22.50;1.00;;;;;;5120139;27;20056;-66
2021/06/05 10:38:26;;;;;;;1.70;1.27;;;22.20;1.00;;;;;;5127189;27;20039;-67
2021/06/05 10:41:19;;;;;;;2.83;1.20;;;22.50;1.00;;;;;;5126873;27;20120;-66
2021/06/05 10:44:07;;;;;;;2.53;1.20;;;21.90;1.00;;;;;;5121232;27;20054;-66
2021/06/05 10:46:59;;;;;;;4.15;1.67;;;22.80;1.00;;;;;;5123545;27;20363;-67
2021/06/05 10:49:54;;;;;;;2.95;1.48;;;23.40;1.00;;;;;;5124638;27;20039;-67
2021/06/05 10:52:52;;;;;;;2.55;1.17;;;22.90;1.00;;;;;;5110017;27;20401;-67
2021/06/05 10:55:44;;;;;;;1.73;1.02;;;23.20;1.00;;;;;;5109420;27;20080;-67
2021/06/05 10:58:43;;;;;;;2.47;1.25;;;22.60;1.00;;;;;;5124816;27;20039;-67
2021/06/05 11:01:47;;;;;;;1.85;1.13;;;22.10;1.00;;;;;;5123236;27;20063;-66
2021/06/05 11:04:46;;;;;;;2.73;1.80;;;21.90;1.00;;;;;;5122752;27;20051;-65
2021/06/05 11:07:35;;;;;;;1.17;1.08;;;22.60;1.00;;;;;;5123176;27;20035;-67
2021/06/05 11:10:45;;;;;;;1.65;1.20;;;22.00;1.00;;;;;;5124392;27;20065;-67
2021/06/05 11:13:57;;;;;;;4.43;1.60;;;22.10;1.00;;;;;;5118387;27;20043;-66
2021/06/05 11:17:33;;;;;;;1.83;1.17;;;22.60;1.00;;;;;;5118774;27;20047;-66
2021/06/05 11:20:34;;;;;;;2.97;1.30;;;22.40;1.00;;;;;;5108399;27;20119;-66
2021/06/05 11:23:30;;;;;;;2.38;1.10;;;21.80;1.00;;;;;;5124487;27;20047;-66
2021/06/05 11:26:40;;;;;;;1.38;1.00;;;22.00;1.00;;;;;;5128505;27;20039;-65
2021/06/05 11:29:49;;;;;;;2.90;1.25;;;21.90;1.00;;;;;;5123382;27;20155;-67
2021/06/05 11:32:52;;;;;;;2.13;1.27;;;22.30;1.00;;;;;;5124186;27;20176;-66
2021/06/05 11:35:44;;;;;;;2.72;1.40;;;22.30;1.00;;;;;;5125243;27;20100;-67
2021/06/05 11:38:51;;;;;;;2.47;1.65;;;22.20;1.00;;;;;;5122377;27;20047;-66
2021/06/05 11:41:42;;;;;;;2.42;1.27;;;22.50;1.00;;;;;;5127842;27;20437;-66
2021/06/05 11:44:33;;;;;;;2.60;1.40;;;22.30;1.00;;;;;;5121682;27;20047;-67
2021/06/05 11:47:41;;;;;;;2.25;1.38;;;22.30;1.00;;;;;;5123113;27;20455;-66
2021/06/05 11:50:32;;;;;;;4.68;2.20;;;21.90;2.00;;;;;;5122791;27;20047;-66
2021/06/05 11:53:31;;;;;;;4.88;2.38;;;21.60;5.00;;;;;;5113568;27;20131;-66
2021/06/05 11:56:25;;;;;;;5.03;2.22;;;21.50;10.20;;;;;;5122151;27;20105;-66
2021/06/05 11:59:23;;;;;;;4.53;2.37;;;21.40;8.90;;;;;;5128785;27;20451;-67
2021/06/05 12:02:19;;;;;;;3.15;1.90;;;21.40;10.10;;;;;;5119109;27;20050;-67
2021/06/05 12:05:16;;;;;;;4.50;2.28;;;21.20;11.80;;;;;;5122844;27;20051;-67
2021/06/05 12:08:21;;;;;;;2.50;2.10;;;21.20;11.70;;;;;;5125765;27;20130;-67
2021/06/05 12:11:19;;;;;;;5.43;2.38;;;21.70;10.20;;;;;;5110709;27;20142;-66
2021/06/05 12:14:15;;;;;;;5.28;2.30;;;22.30;9.30;;;;;;5124446;27;20047;-67
2021/06/05 12:17:06;;;;;;;4.40;2.08;;;22.40;4.70;;;;;;5125603;27;20108;-66
2021/06/05 12:20:04;;;;;;;3.75;1.95;;;22.30;4.70;;;;;;5122875;27;20383;-65
2021/06/05 12:22:54;;;;;;;4.55;2.00;;;21.70;7.70;;;;;;5123553;27;20047;-65
2021/06/05 12:25:45;;;;;;;2.45;1.98;;;22.10;11.70;;;;;;5124579;27;20044;-66
2021/06/05 12:28:36;;;;;;;3.13;2.20;;;22.30;6.90;;;;;;5110034;27;20045;-66
2021/06/05 12:31:31;;;;;;;3.53;2.15;;;22.30;1.00;;;;;;5124145;27;20110;-66
2021/06/05 12:34:32;;;;;;;2.70;2.00;;;23.00;1.70;;;;;;5106434;27;20047;-66
2021/06/05 12:37:24;;;;;;;1.85;1.55;;;22.90;1.00;;;;;;5108328;27;20048;-66
2021/06/05 12:40:17;;;;;;;1.95;1.55;;;23.10;1.00;;;;;;5125611;27;20073;-67
2021/06/05 12:43:07;;;;;;;1.52;1.30;;;23.40;1.00;;;;;;5130503;27;20043;-66
2021/06/05 12:45:58;;;;;;;3.80;1.55;;;23.40;1.00;;;;;;5121044;27;20048;-66
2021/06/05 12:48:48;;;;;;;1.40;1.30;;;23.50;1.00;;;;;;5124848;27;20044;-66
2021/06/05 12:51:40;;;;;;;3.25;1.30;;;23.80;1.00;;;;;;5105438;27;20047;-66
2021/06/05 12:54:31;;;;;;;2.13;1.50;;;23.50;1.00;;;;;;5121137;27;20039;-66
2021/06/05 12:57:27;;;;;;;3.28;1.50;;;23.20;1.00;;;;;;5114250;27;20039;-66
2021/06/05 13:00:23;;;;;;;1.48;1.30;;;23.50;1.00;;;;;;5122825;27;20081;-64
2021/06/05 13:03:36;;;;;;;2.00;1.20;;;23.40;1.00;;;;;;5125984;27;20053;-65
2021/06/05 13:06:30;;;;;;;2.03;1.30;;;23.20;1.00;;;;;;5122752;27;20061;-65
2021/06/05 13:09:25;;;;;;;1.42;1.20;;;23.00;1.00;;;;;;5127731;27;20572;-65
2021/06/05 13:12:30;;;;;;;2.28;1.52;;;23.00;1.00;;;;;;5123143;27;20050;-65
2021/06/05 13:15:31;;;;;;;6.07;1.75;;;22.10;1.00;;;;;;5122705;27;20440;-65
2021/06/05 13:18:26;;;;;;;3.15;1.83;;;22.00;3.80;;;;;;5120696;27;20050;-65
2021/06/05 13:21:20;;;;;;;1.48;1.23;;;21.60;6.00;;;;;;5124405;27;20499;-66
2021/06/05 13:24:14;;;;;;;3.53;1.90;;;21.70;3.20;;;;;;5106792;27;20043;-67
2021/06/05 13:27:16;;;;;;;5.77;2.17;;;21.60;7.40;;;;;;5124539;27;20120;-65
2021/06/05 13:30:15;;;;;;;8.52;2.42;;;21.20;17.10;;;;;;5112141;27;20063;-65
2021/06/05 13:33:06;;;;;;;2.65;1.73;;;20.80;20.50;;;;;;5121816;27;20050;-67
2021/06/05 13:35:57;;;;;;;5.35;1.88;;;20.90;17.50;;;;;;5120536;27;20039;-66
2021/06/05 13:38:55;;;;;;;4.47;2.00;;;21.10;15.40;;;;;;5124743;27;20055;-65
2021/06/05 13:41:47;;;;;;;2.20;1.60;;;21.40;13.50;;;;;;5122381;27;20168;-65
2021/06/05 13:44:36;;;;;;;4.30;1.63;;;21.80;6.50;;;;;;5130657;27;20180;-65
2021/06/05 13:47:24;;;;;;;3.08;1.98;;;21.90;9.20;;;;;;5124996;27;20057;-66
2021/06/05 13:50:15;;;;;;;3.00;1.70;;;22.00;7.90;;;;;;5126587;27;20055;-66
2021/06/05 13:53:09;;;;;;;4.32;2.03;;;22.10;7.40;;;;;;5126854;27;20043;-65
2021/06/05 13:55:58;;;;;;;;;;;22.00;4.60;;;;;;5111944;27;20051;-66
2021/06/05 13:58:48;;;;;;;2.83;1.60;;;21.80;8.00;;;;;;5125352;27;19919;-68
2021/06/05 14:01:36;;;;;;;3.33;1.50;;;21.70;12.10;;;;;;5128062;27;20051;-65
2021/06/05 14:04:24;;;;;;;2.10;1.50;;;21.10;7.90;;;;;;5125278;27;20047;-65
2021/06/05 14:07:13;;;;;;;4.30;2.22;;;20.70;11.80;;;;;;5128315;27;20167;-65
2021/06/05 14:10:01;;;;;;;7.00;1.95;;;19.80;23.60;;;;;;5120727;27;20047;-65
2021/06/05 14:12:49;;;;;;;5.72;2.70;;;19.60;30.40;;;;;;5133172;27;20461;-65
2021/06/05 14:15:41;;;;;;;8.32;2.67;;;19.20;40.10;;;;;;5124673;27;20143;-65
2021/06/05 14:18:31;;;;;;;6.53;3.20;;;18.50;45.80;;;;;;5127577;27;20493;-66
2021/06/05 14:21:20;;;;;;;5.75;2.83;;;18.30;53.50;;;;;;5129901;27;20118;-67
2021/06/05 14:24:08;;;;;;;3.65;2.15;;;18.10;57.60;;;;;;5128732;27;20047;-65
2021/06/05 14:26:56;;;;;;;2.90;1.90;;;17.90;56.50;;;;;;5127290;27;20043;-64
2021/06/05 14:29:44;;;;;;;13.27;2.22;;;17.60;56.20;;;;;;5123978;27;20070;-64
2021/06/05 14:32:34;;;;;;;6.82;2.20;;;17.50;56.20;;;;;;5125616;27;20479;-66
2021/06/05 14:35:23;;;;;;;3.80;1.45;;;17.50;56.90;;;;;;5128327;27;20122;-66
2021/06/05 14:38:13;;;;;;;2.95;1.63;;;17.40;53.70;;;;;;5130724;27;20109;-66
2021/06/05 14:41:02;;;;;;;2.55;1.35;;;17.60;56.60;;;;;;5126523;27;20047;-66
2021/06/05 14:43:50;;;;;;;1.50;0.82;;;17.70;56.50;;;;;;5129270;27;20541;-65
2021/06/05 14:46:38;;;;;;;0.73;0.50;;;17.40;52.00;;;;;;5125487;27;20055;-65
2021/06/05 14:49:28;;;;;;;1.92;0.80;;;17.20;48.10;;;;;;5126857;27;20131;-64
2021/06/05 14:52:17;;;;;;;1.40;0.63;;;17.10;50.20;;;;;;5123979;27;20493;-64
2021/06/05 14:55:06;;;;;;;0.73;0.50;;;17.10;49.70;;;;;;5129223;27;20059;-65
2021/06/05 14:57:54;;;;;;;1.98;0.70;;;17.10;48.30;;;;;;5123185;27;20115;-63
2021/06/05 15:00:43;;;;;;;2.67;1.40;;;17.10;50.50;;;;;;5129467;27;20042;-65
2021/06/05 15:03:31;;;;;;;1.42;1.00;;;17.20;50.80;;;;;;5126592;27;20512;-65
2021/06/05 15:06:22;;;;;;;2.17;1.30;;;17.40;52.70;;;;;;5127559;27;20553;-66